Terminal Aerodrome Forecast
Issued by NWS

Home | Current Version | Previous Version | Text Only | Print | Product List | Glossary On
Versions: 1 2 3 4 5 6 7 8 9 10 11 12 13 14 15 16 17 18 19 20
000
FTUS46 KSEW 261100
TAFHQM
TAF
KHQM 261120Z 2612/2712 00000KT 2SM BR OVC009
     FM261700 18002KT P6SM OVC010
     FM261800 24007KT P6SM OVC015
     FM270600 25003KT P6SM OVC007
     FM271000 25003KT 4SM BR OVC007=

USA.gov is the U.S. government's official web portal to all federal, state and local government web resources and services.